Albemarle, North Carolina
Current Conditions -  °F | °C
As of 8:55 AM on Monday 24 Nov 2014 (Local Time) from KVUJ Reporting Station
Thunderstorm Thunderstorm  
Wind Chill: 62°   Ceiling: 3300
Heat Index: 62°   Visibility: 10mi
Dew Point: 60°   Wind: 10mph
Humidity: 93%   Direction: 200°SSW
Pressure: 29.86"   Gusts: 18mph
Location:  35.35°N, 80.19°W
Report Text: KVUJ 241355Z AUTO 20009G16KT 10SM VCTS OVC033 17/16 A2986 RMK AO2 LTG DSNT E T01670155
Loading
Personal Weather Stations






























Interactive Weather Map New forecast layout! Learn more

10-Day Weather Forecast

Advertisements
Track Severe Weather on mobile